TOM820 EGKK-LTAI
Flight info
| Callsign | TOM820 |
|---|---|
| Flight time | N/A |
| Altitude | 35000 |
| Route | ODVIK Y311 DVR UL9 KONAN DCT KOK DCT LIRSU DCT LALMI DCT ABTAL DCT RIDAR DCT GOMIG DCT GOLVA DCT ADULA DCT TPL DCT IDABO DCT NISVA DCT USALI DCT RODIP UN131 PIBOM DCT BELGI UN131 KULAR UT39 NESIL |
| Aircraft | B738/M-SDFGHIJ1RWXYZ/LB1 |
Departure
| Time | 2026-05-07 14:10 |
|---|---|
| Airport | London Gatwick Airport (EGKK) |
Arrival
| Time | N/A |
|---|---|
| Airport | Antalya International Airport (LTAI) |
| Time | Latitude | Longitude | Altitude | Speed | Heading |
|---|---|---|---|---|---|
| 2026-05-07 13:52 | 51.16024 | -0.18006 | 204 ft | 0 kts | 77° |
| 2026-05-07 13:57 | 51.16022 | -0.18021 | 213 ft | 4 kts | 71° |
| 2026-05-07 13:58 | 51.16009 | -0.18056 | 211 ft | 4 kts | 56° |
| 2026-05-07 13:58 | 51.16003 | -0.18086 | 207 ft | 4 kts | 91° |
| 2026-05-07 13:58 | 51.16008 | -0.18125 | 208 ft | 4 kts | 127° |
| 2026-05-07 13:58 | 51.16021 | -0.18142 | 213 ft | 0 kts | 167° |
| 2026-05-07 14:02 | 51.16016 | -0.18140 | 204 ft | 3 kts | 169° |
| 2026-05-07 14:02 | 51.15961 | -0.18124 | 204 ft | 12 kts | 169° |
| 2026-05-07 14:03 | 51.15882 | -0.18097 | 204 ft | 12 kts | 167° |
| 2026-05-07 14:03 | 51.15791 | -0.18065 | 213 ft | 15 kts | 167° |
| 2026-05-07 14:03 | 51.15709 | -0.18046 | 207 ft | 11 kts | 195° |
| 2026-05-07 14:03 | 51.15671 | -0.18174 | 213 ft | 16 kts | 257° |
| 2026-05-07 14:04 | 51.15651 | -0.18318 | 209 ft | 10 kts | 251° |
| 2026-05-07 14:04 | 51.15575 | -0.18345 | 204 ft | 14 kts | 168° |
| 2026-05-07 14:04 | 51.15464 | -0.18306 | 208 ft | 18 kts | 168° |
| 2026-05-07 14:04 | 51.15338 | -0.18263 | 204 ft | 18 kts | 168° |
| 2026-05-07 14:05 | 51.15242 | -0.18229 | 207 ft | 11 kts | 168° |
| 2026-05-07 14:05 | 51.15188 | -0.18310 | 209 ft | 15 kts | 261° |
| 2026-05-07 14:05 | 51.15164 | -0.18497 | 208 ft | 20 kts | 257° |
| 2026-05-07 14:05 | 51.15132 | -0.18732 | 204 ft | 24 kts | 258° |
| 2026-05-07 14:06 | 51.15095 | -0.19003 | 206 ft | 26 kts | 258° |
| 2026-05-07 14:06 | 51.15055 | -0.19291 | 209 ft | 26 kts | 257° |
| 2026-05-07 14:06 | 51.15015 | -0.19582 | 211 ft | 28 kts | 257° |
| 2026-05-07 14:06 | 51.14973 | -0.19886 | 213 ft | 27 kts | 257° |
| 2026-05-07 14:07 | 51.14934 | -0.20169 | 206 ft | 25 kts | 257° |
| 2026-05-07 14:07 | 51.14896 | -0.20442 | 213 ft | 26 kts | 257° |
| 2026-05-07 14:07 | 51.14857 | -0.20725 | 204 ft | 24 kts | 257° |
| 2026-05-07 14:07 | 51.14823 | -0.20969 | 207 ft | 20 kts | 257° |
| 2026-05-07 14:08 | 51.14793 | -0.21149 | 210 ft | 13 kts | 245° |
| 2026-05-07 14:08 | 51.14770 | -0.21284 | 204 ft | 12 kts | 257° |
| 2026-05-07 14:08 | 51.14740 | -0.21398 | 208 ft | 10 kts | 211° |
| 2026-05-07 14:08 | 51.14686 | -0.21393 | 211 ft | 8 kts | 152° |
| 2026-05-07 14:09 | 51.14642 | -0.21342 | 207 ft | 8 kts | 155° |
| 2026-05-07 14:09 | 51.14576 | -0.21312 | 208 ft | 12 kts | 159° |
| 2026-05-07 14:09 | 51.14520 | -0.21218 | 209 ft | 10 kts | 108° |
| 2026-05-07 14:09 | 51.14533 | -0.21086 | 206 ft | 25 kts | 77° |
| 2026-05-07 14:10 | 51.14630 | -0.20383 | 210 ft | 104 kts | 78° |
| 2026-05-07 14:10 | 51.14825 | -0.18893 | 233 ft | 166 kts | 80° |
| 2026-05-07 14:10 | 51.15066 | -0.17051 | 1092 ft | 167 kts | 79° |
| 2026-05-07 14:10 | 51.15320 | -0.15213 | 1974 ft | 173 kts | 79° |
| 2026-05-07 14:11 | 51.15575 | -0.13338 | 2854 ft | 177 kts | 78° |
| 2026-05-07 14:11 | 51.15854 | -0.11325 | 3488 ft | 196 kts | 78° |
| 2026-05-07 14:11 | 51.16158 | -0.09153 | 4181 ft | 205 kts | 77° |
| 2026-05-07 14:11 | 51.16476 | -0.06898 | 4806 ft | 215 kts | 77° |
| 2026-05-07 14:12 | 51.16820 | -0.04438 | 5138 ft | 237 kts | 78° |
| 2026-05-07 14:12 | 51.16926 | -0.01791 | 5960 ft | 240 kts | 92° |
| 2026-05-07 14:12 | 51.16850 | 0.00861 | 6769 ft | 242 kts | 93° |
| 2026-05-07 14:12 | 51.16779 | 0.03680 | 7094 ft | 267 kts | 92° |
| 2026-05-07 14:13 | 51.16717 | 0.06706 | 7745 ft | 277 kts | 93° |
| 2026-05-07 14:13 | 51.16657 | 0.09801 | 8591 ft | 281 kts | 93° |
| 2026-05-07 14:13 | 51.16598 | 0.12937 | 9452 ft | 285 kts | 93° |
| 2026-05-07 14:13 | 51.16543 | 0.16050 | 10231 ft | 289 kts | 92° |
| 2026-05-07 14:14 | 51.16540 | 0.19281 | 11003 ft | 293 kts | 91° |
| 2026-05-07 14:14 | 51.16557 | 0.22539 | 11810 ft | 296 kts | 91° |
| 2026-05-07 14:14 | 51.16571 | 0.25835 | 12624 ft | 299 kts | 91° |
| 2026-05-07 14:14 | 51.16579 | 0.29173 | 13424 ft | 303 kts | 91° |
| 2026-05-07 14:15 | 51.16585 | 0.32557 | 14151 ft | 308 kts | 91° |
| 2026-05-07 14:15 | 51.16589 | 0.35992 | 14850 ft | 312 kts | 91° |
| 2026-05-07 14:15 | 51.16593 | 0.39432 | 15526 ft | 317 kts | 91° |
| 2026-05-07 14:15 | 51.16596 | 0.42969 | 16223 ft | 322 kts | 91° |
| 2026-05-07 14:16 | 51.16598 | 0.46559 | 16913 ft | 326 kts | 91° |
| 2026-05-07 14:16 | 51.16599 | 0.50254 | 17503 ft | 336 kts | 91° |
| 2026-05-07 14:16 | 51.16596 | 0.54046 | 17650 ft | 357 kts | 91° |
| 2026-05-07 14:16 | 51.16593 | 0.58109 | 17820 ft | 377 kts | 91° |
| 2026-05-07 14:17 | 51.16588 | 0.62381 | 18076 ft | 393 kts | 91° |
| 2026-05-07 14:17 | 51.16583 | 0.66783 | 18563 ft | 400 kts | 91° |
| 2026-05-07 14:17 | 51.16577 | 0.71229 | 19204 ft | 402 kts | 91° |
| 2026-05-07 14:17 | 51.16569 | 0.75694 | 19849 ft | 405 kts | 91° |
| 2026-05-07 14:18 | 51.16559 | 0.80201 | 20432 ft | 409 kts | 91° |
| 2026-05-07 14:18 | 51.16548 | 0.84752 | 21002 ft | 413 kts | 91° |
| 2026-05-07 14:18 | 51.16535 | 0.89346 | 21572 ft | 416 kts | 91° |
| 2026-05-07 14:18 | 51.16519 | 0.93980 | 22168 ft | 420 kts | 91° |
| 2026-05-07 14:19 | 51.16502 | 0.98649 | 22723 ft | 423 kts | 91° |
| 2026-05-07 14:19 | 51.16483 | 1.03349 | 23259 ft | 426 kts | 91° |
| 2026-05-07 14:19 | 51.16462 | 1.08090 | 23738 ft | 430 kts | 91° |
| 2026-05-07 14:19 | 51.16439 | 1.12871 | 24152 ft | 433 kts | 91° |
| 2026-05-07 14:20 | 51.16413 | 1.17681 | 24592 ft | 436 kts | 91° |
| 2026-05-07 14:20 | 51.16386 | 1.22523 | 25046 ft | 438 kts | 91° |
| 2026-05-07 14:20 | 51.16357 | 1.27394 | 25470 ft | 441 kts | 91° |
| 2026-05-07 14:20 | 51.16325 | 1.32288 | 25859 ft | 444 kts | 91° |
| 2026-05-07 14:21 | 51.16271 | 1.37215 | 26250 ft | 446 kts | 93° |
| 2026-05-07 14:21 | 51.16094 | 1.42164 | 26636 ft | 449 kts | 95° |
| 2026-05-07 14:21 | 51.15844 | 1.47129 | 27059 ft | 451 kts | 96° |
| 2026-05-07 14:21 | 51.15572 | 1.52112 | 27444 ft | 453 kts | 96° |
| 2026-05-07 14:22 | 51.15299 | 1.57128 | 27803 ft | 456 kts | 96° |
| 2026-05-07 14:22 | 51.15033 | 1.62175 | 28144 ft | 458 kts | 96° |
| 2026-05-07 14:22 | 51.14773 | 1.67247 | 28496 ft | 461 kts | 95° |
| 2026-05-07 14:22 | 51.14516 | 1.72345 | 28842 ft | 463 kts | 95° |
| 2026-05-07 14:23 | 51.14259 | 1.77476 | 29184 ft | 466 kts | 95° |
| 2026-05-07 14:23 | 51.13998 | 1.82627 | 29512 ft | 468 kts | 95° |
| 2026-05-07 14:23 | 51.13734 | 1.87802 | 29864 ft | 470 kts | 95° |
| 2026-05-07 14:23 | 51.13467 | 1.92980 | 30286 ft | 469 kts | 96° |
| 2026-05-07 14:24 | 51.13198 | 1.98138 | 30728 ft | 466 kts | 96° |
| 2026-05-07 14:24 | 51.12928 | 2.03276 | 31136 ft | 465 kts | 96° |
| 2026-05-07 14:24 | 51.12655 | 2.08403 | 31497 ft | 465 kts | 96° |
| 2026-05-07 14:24 | 51.12381 | 2.13531 | 31876 ft | 465 kts | 96° |
| 2026-05-07 14:25 | 51.12106 | 2.18646 | 32276 ft | 463 kts | 96° |
| 2026-05-07 14:25 | 51.11829 | 2.23746 | 32654 ft | 462 kts | 96° |
| 2026-05-07 14:25 | 51.11551 | 2.28843 | 33006 ft | 462 kts | 96° |
| 2026-05-07 14:25 | 51.11270 | 2.33936 | 33356 ft | 461 kts | 96° |
| 2026-05-07 14:26 | 51.10988 | 2.39015 | 33738 ft | 460 kts | 96° |
| 2026-05-07 14:26 | 51.10704 | 2.44086 | 34115 ft | 459 kts | 96° |
| 2026-05-07 14:26 | 51.10419 | 2.49142 | 34403 ft | 459 kts | 96° |
| 2026-05-07 14:26 | 51.10137 | 2.54137 | 34656 ft | 459 kts | 96° |
| 2026-05-07 14:27 | 51.09847 | 2.59198 | 34906 ft | 460 kts | 96° |
| 2026-05-07 14:27 | 51.09513 | 2.64254 | 35064 ft | 461 kts | 100° |
| 2026-05-07 14:27 | 51.08764 | 2.69227 | 35067 ft | 462 kts | 110° |
| 2026-05-07 14:28 | 51.06620 | 2.78852 | 35075 ft | 459 kts | 111° |
| 2026-05-07 14:28 | 51.04453 | 2.88337 | 35070 ft | 455 kts | 111° |
| 2026-05-07 14:29 | 51.02321 | 2.97806 | 35076 ft | 455 kts | 111° |
| 2026-05-07 14:29 | 51.00562 | 3.05691 | 35073 ft | 456 kts | 111° |
| 2026-05-07 14:30 | 50.98447 | 3.15176 | 35077 ft | 456 kts | 111° |
| 2026-05-07 14:30 | 50.96325 | 3.24657 | 35070 ft | 456 kts | 111° |
| 2026-05-07 14:31 | 50.94192 | 3.34140 | 35067 ft | 457 kts | 111° |
| 2026-05-07 14:31 | 50.92049 | 3.43618 | 35068 ft | 457 kts | 111° |
| 2026-05-07 14:32 | 50.89893 | 3.53106 | 35077 ft | 458 kts | 111° |
| 2026-05-07 14:32 | 50.87729 | 3.62592 | 35067 ft | 458 kts | 111° |
| 2026-05-07 14:33 | 50.85553 | 3.72086 | 35083 ft | 459 kts | 111° |
| 2026-05-07 14:33 | 50.83366 | 3.81587 | 35077 ft | 460 kts | 111° |
| 2026-05-07 14:34 | 50.81172 | 3.91080 | 35056 ft | 460 kts | 111° |
| 2026-05-07 14:34 | 50.78969 | 4.00567 | 35077 ft | 459 kts | 111° |
| 2026-05-07 14:35 | 50.76759 | 4.10033 | 35075 ft | 460 kts | 112° |
| 2026-05-07 14:35 | 50.74540 | 4.19506 | 35076 ft | 460 kts | 112° |
| 2026-05-07 14:36 | 50.72313 | 4.28973 | 35075 ft | 460 kts | 112° |
| 2026-05-07 14:36 | 50.70076 | 4.38436 | 35074 ft | 460 kts | 112° |
| 2026-05-07 14:37 | 50.67833 | 4.47884 | 35076 ft | 460 kts | 112° |
| 2026-05-07 14:37 | 50.64452 | 4.62047 | 35074 ft | 460 kts | 112° |
| 2026-05-07 14:38 | 50.62190 | 4.71466 | 35060 ft | 459 kts | 112° |
| 2026-05-07 14:38 | 50.59925 | 4.80865 | 35069 ft | 459 kts | 112° |
| 2026-05-07 14:39 | 50.57653 | 4.90248 | 35069 ft | 459 kts | 112° |
| 2026-05-07 14:39 | 50.55374 | 4.99622 | 35073 ft | 459 kts | 112° |
| 2026-05-07 14:40 | 50.53087 | 5.08989 | 35060 ft | 459 kts | 112° |
| 2026-05-07 14:40 | 50.50809 | 5.18279 | 35067 ft | 459 kts | 112° |
| 2026-05-07 14:41 | 50.48508 | 5.27625 | 35071 ft | 459 kts | 112° |
| 2026-05-07 14:41 | 50.46199 | 5.36965 | 35069 ft | 459 kts | 112° |
| 2026-05-07 14:42 | 50.43880 | 5.46305 | 35063 ft | 459 kts | 112° |
| 2026-05-07 14:42 | 50.41553 | 5.55637 | 35061 ft | 460 kts | 112° |
| 2026-05-07 14:43 | 50.39215 | 5.64989 | 35063 ft | 461 kts | 112° |
| 2026-05-07 14:43 | 50.36864 | 5.74334 | 35054 ft | 461 kts | 112° |
| 2026-05-07 14:44 | 50.34500 | 5.83690 | 35052 ft | 462 kts | 112° |
| 2026-05-07 14:44 | 50.32128 | 5.93037 | 35045 ft | 462 kts | 112° |
| 2026-05-07 14:45 | 50.29749 | 6.02383 | 35039 ft | 462 kts | 112° |
| 2026-05-07 14:45 | 50.27364 | 6.11716 | 35039 ft | 462 kts | 112° |
| 2026-05-07 14:46 | 50.24988 | 6.20968 | 35036 ft | 461 kts | 112° |
| 2026-05-07 14:46 | 50.22574 | 6.30337 | 35031 ft | 462 kts | 112° |
| 2026-05-07 14:47 | 50.20186 | 6.39574 | 35034 ft | 462 kts | 113° |
| 2026-05-07 14:47 | 50.17649 | 6.48840 | 35029 ft | 461 kts | 117° |
| 2026-05-07 14:48 | 50.14690 | 6.57608 | 35037 ft | 460 kts | 119° |
| 2026-05-07 14:48 | 50.11622 | 6.66361 | 35033 ft | 461 kts | 119° |
| 2026-05-07 14:49 | 50.08581 | 6.75151 | 35024 ft | 461 kts | 118° |
| 2026-05-07 14:49 | 50.05572 | 6.83937 | 35038 ft | 459 kts | 118° |
| 2026-05-07 14:50 | 50.02571 | 6.92701 | 35047 ft | 459 kts | 118° |
| 2026-05-07 14:50 | 49.99564 | 7.01455 | 35039 ft | 459 kts | 118° |
| 2026-05-07 14:51 | 49.96551 | 7.10191 | 35047 ft | 459 kts | 118° |
| 2026-05-07 14:51 | 49.93531 | 7.18915 | 35048 ft | 459 kts | 118° |
| 2026-05-07 14:52 | 49.90503 | 7.27637 | 35045 ft | 459 kts | 118° |
| 2026-05-07 14:52 | 49.87465 | 7.36353 | 35039 ft | 460 kts | 119° |
| 2026-05-07 14:53 | 49.84419 | 7.45060 | 35046 ft | 459 kts | 119° |
| 2026-05-07 14:53 | 49.81365 | 7.53759 | 35052 ft | 460 kts | 119° |
| 2026-05-07 14:54 | 49.78305 | 7.62455 | 35043 ft | 460 kts | 119° |
| 2026-05-07 14:54 | 49.75235 | 7.71143 | 35052 ft | 460 kts | 119° |
| 2026-05-07 14:55 | 49.72159 | 7.79821 | 35045 ft | 460 kts | 119° |
| 2026-05-07 14:55 | 49.69077 | 7.88488 | 35038 ft | 461 kts | 119° |
| 2026-05-07 14:56 | 49.65986 | 7.97151 | 35048 ft | 461 kts | 120° |
| 2026-05-07 14:56 | 49.62886 | 8.05809 | 35043 ft | 461 kts | 120° |
| 2026-05-07 14:57 | 49.59779 | 8.14458 | 35051 ft | 461 kts | 120° |
| 2026-05-07 14:57 | 49.56660 | 8.23108 | 35052 ft | 462 kts | 120° |
| 2026-05-07 14:58 | 49.53530 | 8.31762 | 35046 ft | 463 kts | 120° |
| 2026-05-07 14:58 | 49.50390 | 8.40424 | 35040 ft | 463 kts | 120° |
| 2026-05-07 14:59 | 49.47244 | 8.49059 | 35046 ft | 463 kts | 120° |
| 2026-05-07 14:59 | 49.44094 | 8.57682 | 35046 ft | 462 kts | 120° |
| 2026-05-07 15:00 | 49.40941 | 8.66285 | 35041 ft | 462 kts | 120° |
| 2026-05-07 15:00 | 49.37785 | 8.74871 | 35051 ft | 462 kts | 120° |
| 2026-05-07 15:01 | 49.34622 | 8.83451 | 35056 ft | 463 kts | 120° |
| 2026-05-07 15:01 | 49.31400 | 8.92015 | 35032 ft | 464 kts | 121° |
| 2026-05-07 15:02 | 49.28154 | 9.00551 | 35044 ft | 464 kts | 121° |
| 2026-05-07 15:02 | 49.24928 | 9.09027 | 35036 ft | 463 kts | 121° |
| 2026-05-07 15:03 | 49.21683 | 9.17541 | 35034 ft | 463 kts | 121° |
| 2026-05-07 15:03 | 49.18436 | 9.26031 | 35043 ft | 462 kts | 121° |
| 2026-05-07 15:04 | 49.15185 | 9.34512 | 35039 ft | 462 kts | 121° |
| 2026-05-07 15:04 | 49.11932 | 9.42971 | 35039 ft | 462 kts | 122° |
| 2026-05-07 15:05 | 49.08668 | 9.51426 | 35042 ft | 462 kts | 122° |
| 2026-05-07 15:05 | 49.05399 | 9.59866 | 35048 ft | 462 kts | 122° |
| 2026-05-07 15:06 | 49.02124 | 9.68298 | 35053 ft | 463 kts | 122° |
| 2026-05-07 15:06 | 48.98835 | 9.76740 | 35049 ft | 464 kts | 122° |
| 2026-05-07 15:07 | 48.96004 | 9.85509 | 35347 ft | 422 kts | 112° |
| 2026-05-07 15:08 | 48.91946 | 10.00957 | 35073 ft | 454 kts | 114° |
| 2026-05-07 15:08 | 48.89485 | 10.09939 | 35052 ft | 467 kts | 114° |
| 2026-05-07 15:09 | 48.86964 | 10.19072 | 35027 ft | 468 kts | 114° |
| 2026-05-07 15:09 | 48.84451 | 10.28140 | 35036 ft | 464 kts | 114° |
| 2026-05-07 15:10 | 48.81942 | 10.37153 | 35047 ft | 463 kts | 114° |
| 2026-05-07 15:10 | 48.79433 | 10.46130 | 35049 ft | 462 kts | 114° |
| 2026-05-07 15:11 | 48.76919 | 10.55088 | 35042 ft | 462 kts | 115° |
| 2026-05-07 15:11 | 48.74819 | 10.62544 | 35049 ft | 463 kts | 115° |
| 2026-05-07 15:12 | 48.71866 | 10.72989 | 35042 ft | 465 kts | 115° |
| 2026-05-07 15:12 | 48.69309 | 10.81998 | 35041 ft | 467 kts | 115° |
| 2026-05-07 15:13 | 48.67154 | 10.89561 | 35031 ft | 468 kts | 115° |
| 2026-05-07 15:13 | 48.64573 | 10.98601 | 35025 ft | 469 kts | 115° |
| 2026-05-07 15:14 | 48.61977 | 11.07654 | 35021 ft | 470 kts | 115° |
| 2026-05-07 15:14 | 48.59385 | 11.16657 | 35033 ft | 471 kts | 115° |
| 2026-05-07 15:15 | 48.56763 | 11.25738 | 35011 ft | 472 kts | 115° |
| 2026-05-07 15:15 | 48.54136 | 11.34797 | 35018 ft | 470 kts | 115° |
| 2026-05-07 15:16 | 48.51512 | 11.43809 | 35022 ft | 468 kts | 115° |
| 2026-05-07 15:16 | 48.48888 | 11.52784 | 35011 ft | 467 kts | 116° |
| 2026-05-07 15:17 | 48.46266 | 11.61719 | 35023 ft | 466 kts | 116° |
| 2026-05-07 15:17 | 48.43643 | 11.70635 | 35020 ft | 465 kts | 116° |
| 2026-05-07 15:18 | 48.41017 | 11.79529 | 35022 ft | 465 kts | 116° |
| 2026-05-07 15:18 | 48.38382 | 11.88416 | 35025 ft | 466 kts | 116° |
| 2026-05-07 15:19 | 48.35734 | 11.97313 | 35021 ft | 466 kts | 116° |
| 2026-05-07 15:19 | 48.33078 | 12.06210 | 35025 ft | 468 kts | 116° |
| 2026-05-07 15:20 | 48.30403 | 12.15134 | 35013 ft | 469 kts | 117° |
| 2026-05-07 15:20 | 48.27716 | 12.24059 | 35017 ft | 469 kts | 117° |
| 2026-05-07 15:21 | 48.25019 | 12.32991 | 35016 ft | 470 kts | 117° |
| 2026-05-07 15:21 | 48.22317 | 12.41911 | 35017 ft | 470 kts | 117° |
| 2026-05-07 15:22 | 48.19606 | 12.50831 | 35014 ft | 470 kts | 117° |
| 2026-05-07 15:22 | 48.16889 | 12.59737 | 35016 ft | 470 kts | 117° |
| 2026-05-07 15:23 | 48.14159 | 12.68614 | 35020 ft | 469 kts | 119° |
| 2026-05-07 15:23 | 48.10739 | 12.76824 | 35021 ft | 464 kts | 128° |
| 2026-05-07 15:24 | 48.07013 | 12.84702 | 35018 ft | 464 kts | 128° |
| 2026-05-07 15:24 | 48.03297 | 12.92576 | 35016 ft | 463 kts | 128° |
| 2026-05-07 15:25 | 47.99620 | 13.00471 | 35018 ft | 463 kts | 128° |
| 2026-05-07 15:25 | 47.95957 | 13.08366 | 35023 ft | 462 kts | 128° |
| 2026-05-07 15:26 | 47.92296 | 13.16245 | 35019 ft | 462 kts | 128° |
| 2026-05-07 15:26 | 47.88626 | 13.24114 | 35010 ft | 462 kts | 128° |
| 2026-05-07 15:27 | 47.84952 | 13.31967 | 35007 ft | 462 kts | 128° |
| 2026-05-07 15:27 | 47.81267 | 13.39823 | 35023 ft | 463 kts | 128° |
| 2026-05-07 15:28 | 47.77576 | 13.47665 | 35003 ft | 462 kts | 129° |
| 2026-05-07 15:28 | 47.73881 | 13.55492 | 35020 ft | 463 kts | 128° |
| 2026-05-07 15:29 | 47.70175 | 13.63321 | 34997 ft | 463 kts | 129° |
| 2026-05-07 15:29 | 47.66466 | 13.71135 | 35012 ft | 463 kts | 129° |
| 2026-05-07 15:30 | 47.62752 | 13.78934 | 35006 ft | 463 kts | 129° |
| 2026-05-07 15:30 | 47.59028 | 13.86733 | 34993 ft | 463 kts | 129° |
| 2026-05-07 15:31 | 47.55301 | 13.94521 | 34996 ft | 463 kts | 130° |
| 2026-05-07 15:31 | 47.51596 | 14.02243 | 35009 ft | 463 kts | 129° |
| 2026-05-07 15:32 | 47.47835 | 14.10062 | 35003 ft | 463 kts | 130° |
| 2026-05-07 15:32 | 47.44117 | 14.17758 | 35008 ft | 464 kts | 130° |
| 2026-05-07 15:33 | 47.40351 | 14.25533 | 35139 ft | 469 kts | 130° |
| 2026-05-07 15:33 | 47.38455 | 14.29443 | 35475 ft | 467 kts | 130° |
| 2026-05-07 15:33 | 47.36578 | 14.33310 | 35923 ft | 462 kts | 130° |
| 2026-05-07 15:34 | 47.34707 | 14.37157 | 36144 ft | 461 kts | 130° |
| 2026-05-07 15:34 | 47.32830 | 14.41002 | 36353 ft | 463 kts | 130° |
| 2026-05-07 15:34 | 47.30944 | 14.44865 | 36580 ft | 464 kts | 130° |
| 2026-05-07 15:34 | 47.29053 | 14.48733 | 36756 ft | 466 kts | 130° |
| 2026-05-07 15:35 | 47.27157 | 14.52609 | 36957 ft | 467 kts | 130° |
| 2026-05-07 15:35 | 47.25249 | 14.56505 | 36946 ft | 470 kts | 130° |
| 2026-05-07 15:35 | 47.21424 | 14.64297 | 36918 ft | 467 kts | 130° |
| 2026-05-07 15:36 | 47.17649 | 14.71969 | 36932 ft | 462 kts | 131° |
| 2026-05-07 15:36 | 47.13880 | 14.79599 | 36945 ft | 461 kts | 131° |
| 2026-05-07 15:37 | 47.10111 | 14.87214 | 36941 ft | 461 kts | 131° |
| 2026-05-07 15:37 | 47.06327 | 14.94836 | 36900 ft | 462 kts | 131° |
| 2026-05-07 15:38 | 47.02539 | 15.02441 | 36905 ft | 462 kts | 131° |
| 2026-05-07 15:38 | 46.98746 | 15.10034 | 36911 ft | 462 kts | 131° |
| 2026-05-07 15:39 | 46.94944 | 15.17631 | 36914 ft | 463 kts | 131° |
| 2026-05-07 15:39 | 46.91124 | 15.25239 | 36906 ft | 465 kts | 131° |
| 2026-05-07 15:40 | 46.87295 | 15.32854 | 36912 ft | 464 kts | 131° |
| 2026-05-07 15:40 | 46.83462 | 15.40447 | 36904 ft | 465 kts | 132° |
| 2026-05-07 15:41 | 46.79618 | 15.48041 | 36905 ft | 465 kts | 132° |
| 2026-05-07 15:41 | 46.75773 | 15.55620 | 36907 ft | 465 kts | 132° |
| 2026-05-07 15:42 | 46.71951 | 15.63135 | 36890 ft | 464 kts | 132° |
| 2026-05-07 15:42 | 46.68217 | 15.70823 | 36928 ft | 466 kts | 129° |
| 2026-05-07 15:43 | 46.64641 | 15.78712 | 36944 ft | 467 kts | 128° |
| 2026-05-07 15:43 | 46.61070 | 15.86619 | 36940 ft | 468 kts | 129° |
| 2026-05-07 15:44 | 46.57463 | 15.94511 | 36943 ft | 469 kts | 129° |
| 2026-05-07 15:44 | 46.53834 | 16.02387 | 36949 ft | 469 kts | 129° |
| 2026-05-07 15:45 | 46.50190 | 16.10260 | 36949 ft | 470 kts | 129° |
| 2026-05-07 15:45 | 46.46543 | 16.18122 | 36948 ft | 470 kts | 129° |
| 2026-05-07 15:46 | 46.41058 | 16.29907 | 36933 ft | 470 kts | 129° |
| 2026-05-07 15:47 | 46.37398 | 16.37740 | 36947 ft | 470 kts | 129° |
| 2026-05-07 15:47 | 46.33733 | 16.45559 | 36957 ft | 469 kts | 130° |
| 2026-05-07 15:48 | 46.30065 | 16.53367 | 36969 ft | 469 kts | 130° |
| 2026-05-07 15:48 | 46.26395 | 16.61170 | 36931 ft | 469 kts | 130° |
| 2026-05-07 15:49 | 46.22725 | 16.68940 | 36964 ft | 468 kts | 130° |
| 2026-05-07 15:49 | 46.19056 | 16.76684 | 36970 ft | 467 kts | 130° |
| 2026-05-07 15:50 | 46.15385 | 16.84411 | 36976 ft | 467 kts | 130° |
| 2026-05-07 15:50 | 46.11710 | 16.92131 | 36964 ft | 467 kts | 130° |
| 2026-05-07 15:51 | 46.08036 | 16.99823 | 36973 ft | 466 kts | 130° |
| 2026-05-07 15:51 | 46.04357 | 17.07499 | 36987 ft | 466 kts | 130° |
| 2026-05-07 15:52 | 46.00675 | 17.15165 | 36984 ft | 466 kts | 130° |
| 2026-05-07 15:52 | 45.97012 | 17.22777 | 36984 ft | 466 kts | 130° |
| 2026-05-07 15:53 | 45.93317 | 17.30429 | 36980 ft | 466 kts | 130° |
| 2026-05-07 15:53 | 45.89617 | 17.38069 | 36987 ft | 466 kts | 130° |
| 2026-05-07 15:54 | 45.85912 | 17.45703 | 36995 ft | 466 kts | 130° |
| 2026-05-07 15:54 | 45.82202 | 17.53328 | 36995 ft | 466 kts | 130° |
| 2026-05-07 15:55 | 45.78489 | 17.60936 | 36994 ft | 465 kts | 130° |
| 2026-05-07 15:55 | 45.74769 | 17.68531 | 36996 ft | 466 kts | 130° |
| 2026-05-07 15:56 | 45.71047 | 17.76119 | 37001 ft | 466 kts | 130° |
| 2026-05-07 15:56 | 45.67317 | 17.83702 | 37000 ft | 467 kts | 130° |
| 2026-05-07 15:57 | 45.63581 | 17.91279 | 36992 ft | 466 kts | 130° |
| 2026-05-07 15:57 | 45.59841 | 17.98839 | 37004 ft | 465 kts | 130° |
| 2026-05-07 15:58 | 45.56104 | 18.06376 | 37007 ft | 465 kts | 130° |
| 2026-05-07 15:58 | 45.52996 | 18.12627 | 37012 ft | 464 kts | 130° |
| 2026-05-07 15:59 | 45.49256 | 18.20131 | 36978 ft | 463 kts | 130° |
| 2026-05-07 15:59 | 45.45524 | 18.27601 | 37003 ft | 463 kts | 130° |
| 2026-05-07 16:00 | 45.41791 | 18.35051 | 37019 ft | 463 kts | 130° |
| 2026-05-07 16:00 | 45.38041 | 18.42517 | 37012 ft | 463 kts | 130° |
| 2026-05-07 16:01 | 45.34293 | 18.49962 | 37007 ft | 463 kts | 130° |
| 2026-05-07 16:01 | 45.30548 | 18.57385 | 37006 ft | 461 kts | 130° |
| 2026-05-07 16:02 | 45.26810 | 18.64769 | 37015 ft | 460 kts | 130° |
| 2026-05-07 16:02 | 45.23038 | 18.72085 | 37013 ft | 459 kts | 131° |
| 2026-05-07 16:03 | 45.19249 | 18.79358 | 37003 ft | 458 kts | 131° |
| 2026-05-07 16:03 | 45.15463 | 18.86621 | 37006 ft | 458 kts | 131° |
| 2026-05-07 16:04 | 45.11678 | 18.93874 | 37018 ft | 458 kts | 131° |
| 2026-05-07 16:04 | 45.07909 | 19.01086 | 37021 ft | 459 kts | 131° |
| 2026-05-07 16:05 | 45.04103 | 19.08344 | 37018 ft | 460 kts | 131° |
| 2026-05-07 16:05 | 45.00281 | 19.15615 | 37019 ft | 461 kts | 131° |
| 2026-05-07 16:06 | 44.96445 | 19.22898 | 37018 ft | 462 kts | 131° |
| 2026-05-07 16:06 | 44.92597 | 19.30184 | 37019 ft | 463 kts | 131° |
| 2026-05-07 16:07 | 44.88738 | 19.37478 | 37013 ft | 464 kts | 131° |
| 2026-05-07 16:07 | 44.84873 | 19.44757 | 37009 ft | 464 kts | 131° |
| 2026-05-07 16:08 | 44.81001 | 19.52032 | 37018 ft | 464 kts | 131° |
| 2026-05-07 16:08 | 44.77119 | 19.59305 | 37016 ft | 464 kts | 131° |
| 2026-05-07 16:09 | 44.73234 | 19.66569 | 37022 ft | 465 kts | 131° |
| 2026-05-07 16:09 | 44.69345 | 19.73829 | 37007 ft | 465 kts | 131° |
| 2026-05-07 16:10 | 44.65447 | 19.81080 | 37014 ft | 465 kts | 131° |
| 2026-05-07 16:10 | 44.61546 | 19.88314 | 37020 ft | 465 kts | 131° |
| 2026-05-07 16:11 | 44.57639 | 19.95544 | 37013 ft | 465 kts | 131° |
| 2026-05-07 16:11 | 44.53732 | 20.02757 | 37013 ft | 464 kts | 131° |
| 2026-05-07 16:12 | 44.49849 | 20.09909 | 37024 ft | 464 kts | 131° |
| 2026-05-07 16:12 | 44.45932 | 20.17105 | 37019 ft | 465 kts | 131° |
| 2026-05-07 16:13 | 44.42009 | 20.24296 | 37025 ft | 465 kts | 131° |
| 2026-05-07 16:13 | 44.38082 | 20.31474 | 37024 ft | 465 kts | 131° |
| 2026-05-07 16:14 | 44.34151 | 20.38645 | 37019 ft | 464 kts | 131° |
| 2026-05-07 16:14 | 44.30222 | 20.45791 | 37024 ft | 464 kts | 131° |
| 2026-05-07 16:15 | 44.26284 | 20.52932 | 37024 ft | 464 kts | 131° |
| 2026-05-07 16:15 | 44.22342 | 20.60067 | 37032 ft | 465 kts | 131° |
| 2026-05-07 16:16 | 44.18394 | 20.67202 | 37026 ft | 465 kts | 131° |
| 2026-05-07 16:16 | 44.14441 | 20.74324 | 37040 ft | 465 kts | 131° |
| 2026-05-07 16:17 | 44.10629 | 20.81606 | 37030 ft | 466 kts | 128° |
| 2026-05-07 16:17 | 44.06917 | 20.88997 | 37036 ft | 466 kts | 129° |
| 2026-05-07 16:18 | 44.03172 | 20.96342 | 37031 ft | 465 kts | 129° |
| 2026-05-07 16:18 | 43.99409 | 21.03655 | 37020 ft | 465 kts | 129° |
| 2026-05-07 16:19 | 43.95488 | 21.10772 | 37037 ft | 463 kts | 132° |
| 2026-05-07 16:19 | 43.91504 | 21.17706 | 37035 ft | 463 kts | 133° |
| 2026-05-07 16:20 | 43.87502 | 21.24700 | 37038 ft | 463 kts | 132° |
| 2026-05-07 16:20 | 43.83519 | 21.31697 | 37046 ft | 463 kts | 132° |
| 2026-05-07 16:21 | 43.79540 | 21.38693 | 37021 ft | 462 kts | 132° |
| 2026-05-07 16:21 | 43.75568 | 21.45678 | 37044 ft | 461 kts | 132° |
| 2026-05-07 16:22 | 43.71600 | 21.52641 | 37041 ft | 461 kts | 132° |
| 2026-05-07 16:22 | 43.67623 | 21.59585 | 37037 ft | 461 kts | 132° |
| 2026-05-07 16:23 | 43.63643 | 21.66521 | 37041 ft | 461 kts | 132° |
| 2026-05-07 16:23 | 43.59659 | 21.73448 | 37055 ft | 461 kts | 132° |
| 2026-05-07 16:24 | 43.55670 | 21.80365 | 37056 ft | 460 kts | 132° |
| 2026-05-07 16:24 | 43.51680 | 21.87270 | 37052 ft | 461 kts | 132° |
| 2026-05-07 16:25 | 43.47679 | 21.94178 | 37048 ft | 461 kts | 132° |
| 2026-05-07 16:25 | 43.43672 | 22.01077 | 37047 ft | 461 kts | 132° |
| 2026-05-07 16:26 | 43.39663 | 22.07968 | 37048 ft | 461 kts | 132° |
| 2026-05-07 16:26 | 43.35648 | 22.14854 | 37057 ft | 461 kts | 132° |
| 2026-05-07 16:27 | 43.31630 | 22.21721 | 37065 ft | 461 kts | 133° |
| 2026-05-07 16:27 | 43.27605 | 22.28589 | 37071 ft | 462 kts | 133° |